sensor_id;sensor_type;location;lat;lon;timestamp;P1;durP1;ratioP1;P2;durP2;ratioP2
16504;SDS011;8365;51.030;4.696;2022-08-11T00:00:31;4.82;;;3.65;;
16504;SDS011;8365;51.030;4.696;2022-08-11T00:03:05;4.40;;;2.97;;
16504;SDS011;8365;51.030;4.696;2022-08-11T00:05:48;4.70;;;3.40;;
16504;SDS011;8365;51.030;4.696;2022-08-11T00:08:22;3.08;;;2.88;;
16504;SDS011;8365;51.030;4.696;2022-08-11T00:10:55;7.00;;;3.80;;
16504;SDS011;8365;51.030;4.696;2022-08-11T00:13:42;5.55;;;3.55;;
16504;SDS011;8365;51.030;4.696;2022-08-11T00:16:19;4.15;;;3.50;;
16504;SDS011;8365;51.030;4.696;2022-08-11T00:18:52;4.00;;;3.30;;
16504;SDS011;8365;51.030;4.696;2022-08-11T00:21:25;5.55;;;3.75;;
16504;SDS011;8365;51.030;4.696;2022-08-11T00:23:58;7.13;;;4.03;;
16504;SDS011;8365;51.030;4.696;2022-08-11T00:26:30;5.40;;;3.53;;
16504;SDS011;8365;51.030;4.696;2022-08-11T00:29:09;5.50;;;3.53;;
16504;SDS011;8365;51.030;4.696;2022-08-11T00:31:51;6.85;;;3.47;;
16504;SDS011;8365;51.030;4.696;2022-08-11T00:34:24;5.88;;;3.55;;
16504;SDS011;8365;51.030;4.696;2022-08-11T00:37:00;4.85;;;3.47;;
16504;SDS011;8365;51.030;4.696;2022-08-11T00:39:33;5.65;;;3.72;;
16504;SDS011;8365;51.030;4.696;2022-08-11T00:50:59;6.05;;;3.97;;
16504;SDS011;8365;51.030;4.696;2022-08-11T00:59:27;5.90;;;3.95;;
16504;SDS011;8365;51.030;4.696;2022-08-11T01:07:38;4.03;;;3.60;;
16504;SDS011;8365;51.030;4.696;2022-08-11T01:24:55;6.15;;;4.03;;
16504;SDS011;8365;51.030;4.696;2022-08-11T01:30:59;4.72;;;4.10;;
16504;SDS011;8365;51.030;4.696;2022-08-11T01:37:05;9.40;;;3.80;;
16504;SDS011;8365;51.030;4.696;2022-08-11T01:46:05;7.07;;;3.78;;
16504;SDS011;8365;51.030;4.696;2022-08-11T01:49:07;3.90;;;3.58;;
16504;SDS011;8365;51.030;4.696;2022-08-11T01:51:59;6.60;;;3.83;;
16504;SDS011;8365;51.030;4.696;2022-08-11T01:54:43;5.95;;;4.00;;
16504;SDS011;8365;51.030;4.696;2022-08-11T01:57:33;4.50;;;4.10;;
16504;SDS011;8365;51.030;4.696;2022-08-11T02:00:18;7.55;;;4.30;;
16504;SDS011;8365;51.030;4.696;2022-08-11T02:03:08;4.45;;;4.05;;
16504;SDS011;8365;51.030;4.696;2022-08-11T02:06:03;4.68;;;4.10;;
16504;SDS011;8365;51.030;4.696;2022-08-11T02:12:25;5.65;;;4.30;;
16504;SDS011;8365;51.030;4.696;2022-08-11T02:15:19;6.43;;;4.70;;
16504;SDS011;8365;51.030;4.696;2022-08-11T02:21:37;4.63;;;4.00;;
16504;SDS011;8365;51.030;4.696;2022-08-11T02:24:34;4.65;;;3.88;;
16504;SDS011;8365;51.030;4.696;2022-08-11T02:27:43;4.82;;;3.97;;
16504;SDS011;8365;51.030;4.696;2022-08-11T02:30:19;5.60;;;4.20;;
16504;SDS011;8365;51.030;4.696;2022-08-11T02:41:22;5.00;;;4.50;;
16504;SDS011;8365;51.030;4.696;2022-08-11T02:55:34;7.38;;;4.63;;
16504;SDS011;8365;51.030;4.696;2022-08-11T02:58:25;5.13;;;4.63;;
16504;SDS011;8365;51.030;4.696;2022-08-11T03:01:22;6.50;;;5.00;;
16504;SDS011;8365;51.030;4.696;2022-08-11T03:04:13;6.45;;;4.72;;
16504;SDS011;8365;51.030;4.696;2022-08-11T03:06:56;6.35;;;5.10;;
16504;SDS011;8365;51.030;4.696;2022-08-11T03:12:08;5.30;;;4.80;;
16504;SDS011;8365;51.030;4.696;2022-08-11T03:15:15;8.68;;;5.50;;
16504;SDS011;8365;51.030;4.696;2022-08-11T03:21:09;7.87;;;5.20;;
16504;SDS011;8365;51.030;4.696;2022-08-11T03:24:00;5.30;;;4.80;;
16504;SDS011;8365;51.030;4.696;2022-08-11T03:29:38;8.27;;;5.43;;
16504;SDS011;8365;51.030;4.696;2022-08-11T03:33:14;6.47;;;5.20;;
16504;SDS011;8365;51.030;4.696;2022-08-11T03:35:40;5.65;;;5.15;;
16504;SDS011;8365;51.030;4.696;2022-08-11T03:38:18;6.43;;;5.13;;
16504;SDS011;8365;51.030;4.696;2022-08-11T03:41:15;5.70;;;5.10;;
16504;SDS011;8365;51.030;4.696;2022-08-11T03:58:52;6.23;;;5.50;;
16504;SDS011;8365;51.030;4.696;2022-08-11T04:04:50;5.90;;;5.27;;
16504;SDS011;8365;51.030;4.696;2022-08-11T04:07:35;6.17;;;5.37;;
16504;SDS011;8365;51.030;4.696;2022-08-11T04:39:46;6.23;;;5.70;;
16504;SDS011;8365;51.030;4.696;2022-08-11T04:49:27;8.93;;;6.10;;
16504;SDS011;8365;51.030;4.696;2022-08-11T05:03:02;8.93;;;6.20;;
16504;SDS011;8365;51.030;4.696;2022-08-11T05:10:55;8.93;;;6.73;;
16504;SDS011;8365;51.030;4.696;2022-08-11T05:13:48;7.83;;;6.70;;
16504;SDS011;8365;51.030;4.696;2022-08-11T05:19:31;9.23;;;6.23;;
16504;SDS011;8365;51.030;4.696;2022-08-11T05:22:20;7.40;;;6.50;;
16504;SDS011;8365;51.030;4.696;2022-08-11T05:25:30;8.77;;;6.57;;
16504;SDS011;8365;51.030;4.696;2022-08-11T05:28:29;9.80;;;6.33;;
16504;SDS011;8365;51.030;4.696;2022-08-11T05:31:34;8.07;;;6.67;;
16504;SDS011;8365;51.030;4.696;2022-08-11T05:34:26;9.97;;;6.53;;
16504;SDS011;8365;51.030;4.696;2022-08-11T05:40:07;8.27;;;7.43;;
16504;SDS011;8365;51.030;4.696;2022-08-11T05:43:02;8.50;;;6.90;;
16504;SDS011;8365;51.030;4.696;2022-08-11T05:46:00;14.30;;;8.73;;
16504;SDS011;8365;51.030;4.696;2022-08-11T05:48:51;10.77;;;7.80;;
16504;SDS011;8365;51.030;4.696;2022-08-11T05:51:42;10.25;;;7.90;;
16504;SDS011;8365;51.030;4.696;2022-08-11T05:54:32;11.10;;;7.90;;
16504;SDS011;8365;51.030;4.696;2022-08-11T05:57:22;11.20;;;7.30;;
16504;SDS011;8365;51.030;4.696;2022-08-11T06:00:00;12.18;;;8.20;;
16504;SDS011;8365;51.030;4.696;2022-08-11T06:02:40;12.02;;;8.30;;
16504;SDS011;8365;51.030;4.696;2022-08-11T06:05:12;12.48;;;8.25;;
16504;SDS011;8365;51.030;4.696;2022-08-11T06:07:43;14.40;;;8.07;;
16504;SDS011;8365;51.030;4.696;2022-08-11T06:10:23;11.00;;;7.90;;
16504;SDS011;8365;51.030;4.696;2022-08-11T06:12:56;12.82;;;8.13;;
16504;SDS011;8365;51.030;4.696;2022-08-11T06:15:30;12.60;;;7.68;;
16504;SDS011;8365;51.030;4.696;2022-08-11T06:18:03;11.98;;;8.27;;
16504;SDS011;8365;51.030;4.696;2022-08-11T06:20:34;9.18;;;8.00;;
16504;SDS011;8365;51.030;4.696;2022-08-11T06:23:16;11.30;;;7.90;;
16504;SDS011;8365;51.030;4.696;2022-08-11T06:25:50;9.38;;;7.82;;
16504;SDS011;8365;51.030;4.696;2022-08-11T06:28:32;11.07;;;8.32;;
16504;SDS011;8365;51.030;4.696;2022-08-11T06:31:18;12.73;;;8.52;;
16504;SDS011;8365;51.030;4.696;2022-08-11T06:37:01;8.82;;;7.43;;
16504;SDS011;8365;51.030;4.696;2022-08-11T06:40:15;12.30;;;7.95;;
16504;SDS011;8365;51.030;4.696;2022-08-11T06:48:34;10.50;;;7.80;;
16504;SDS011;8365;51.030;4.696;2022-08-11T06:51:08;8.73;;;7.63;;
16504;SDS011;8365;51.030;4.696;2022-08-11T06:53:44;10.20;;;7.00;;
16504;SDS011;8365;51.030;4.696;2022-08-11T06:56:29;10.32;;;6.93;;
16504;SDS011;8365;51.030;4.696;2022-08-11T06:59:22;11.15;;;7.00;;
16504;SDS011;8365;51.030;4.696;2022-08-11T07:02:19;9.45;;;7.38;;
16504;SDS011;8365;51.030;4.696;2022-08-11T07:05:07;6.93;;;6.22;;
16504;SDS011;8365;51.030;4.696;2022-08-11T07:10:32;9.27;;;5.95;;
16504;SDS011;8365;51.030;4.696;2022-08-11T07:13:26;9.25;;;6.55;;
16504;SDS011;8365;51.030;4.696;2022-08-11T07:16:19;7.65;;;6.47;;
16504;SDS011;8365;51.030;4.696;2022-08-11T07:19:00;9.77;;;6.53;;
16504;SDS011;8365;51.030;4.696;2022-08-11T07:21:52;7.35;;;6.15;;
16504;SDS011;8365;51.030;4.696;2022-08-11T07:24:45;5.95;;;5.45;;
16504;SDS011;8365;51.030;4.696;2022-08-11T07:27:42;7.28;;;6.13;;
16504;SDS011;8365;51.030;4.696;2022-08-11T07:30:36;6.10;;;5.50;;
16504;SDS011;8365;51.030;4.696;2022-08-11T07:33:12;7.43;;;6.07;;
16504;SDS011;8365;51.030;4.696;2022-08-11T07:35:51;6.63;;;5.97;;
16504;SDS011;8365;51.030;4.696;2022-08-11T07:38:26;7.00;;;6.30;;
16504;SDS011;8365;51.030;4.696;2022-08-11T07:41:14;6.90;;;6.18;;
16504;SDS011;8365;51.030;4.696;2022-08-11T07:43:54;9.23;;;6.15;;
16504;SDS011;8365;51.030;4.696;2022-08-11T07:46:38;7.93;;;6.00;;
16504;SDS011;8365;51.030;4.696;2022-08-11T07:49:36;8.40;;;5.22;;
16504;SDS011;8365;51.030;4.696;2022-08-11T07:52:32;7.55;;;5.68;;
16504;SDS011;8365;51.030;4.696;2022-08-11T07:57:37;11.55;;;5.40;;
16504;SDS011;8365;51.030;4.696;2022-08-11T08:00:28;9.18;;;5.35;;
16504;SDS011;8365;51.030;4.696;2022-08-11T08:03:17;5.55;;;4.80;;
16504;SDS011;8365;51.030;4.696;2022-08-11T08:06:07;4.60;;;4.20;;
16504;SDS011;8365;51.030;4.696;2022-08-11T08:08:57;8.07;;;5.15;;
16504;SDS011;8365;51.030;4.696;2022-08-11T08:11:46;7.88;;;4.88;;
16504;SDS011;8365;51.030;4.696;2022-08-11T08:14:35;6.07;;;5.47;;
16504;SDS011;8365;51.030;4.696;2022-08-11T08:17:26;8.98;;;5.07;;
16504;SDS011;8365;51.030;4.696;2022-08-11T08:20:16;9.15;;;5.00;;
16504;SDS011;8365;51.030;4.696;2022-08-11T08:22:50;5.25;;;4.60;;
16504;SDS011;8365;51.030;4.696;2022-08-11T08:25:25;5.88;;;5.05;;
16504;SDS011;8365;51.030;4.696;2022-08-11T08:28:02;11.77;;;5.57;;
16504;SDS011;8365;51.030;4.696;2022-08-11T08:30:39;13.27;;;5.30;;
16504;SDS011;8365;51.030;4.696;2022-08-11T08:33:22;6.65;;;4.97;;
16504;SDS011;8365;51.030;4.696;2022-08-11T08:36:02;6.95;;;4.97;;
16504;SDS011;8365;51.030;4.696;2022-08-11T08:38:41;7.93;;;4.53;;
16504;SDS011;8365;51.030;4.696;2022-08-11T08:41:21;6.35;;;4.85;;
16504;SDS011;8365;51.030;4.696;2022-08-11T08:44:05;8.38;;;5.00;;
16504;SDS011;8365;51.030;4.696;2022-08-11T08:46:45;7.30;;;4.50;;
16504;SDS011;8365;51.030;4.696;2022-08-11T08:49:22;8.45;;;4.95;;
16504;SDS011;8365;51.030;4.696;2022-08-11T08:52:00;5.53;;;4.85;;
16504;SDS011;8365;51.030;4.696;2022-08-11T08:54:36;11.30;;;5.13;;
16504;SDS011;8365;51.030;4.696;2022-08-11T08:57:08;7.47;;;4.82;;
16504;SDS011;8365;51.030;4.696;2022-08-11T08:59:41;6.47;;;4.53;;
16504;SDS011;8365;51.030;4.696;2022-08-11T09:02:16;7.57;;;4.95;;
16504;SDS011;8365;51.030;4.696;2022-08-11T09:04:49;8.32;;;4.43;;
16504;SDS011;8365;51.030;4.696;2022-08-11T09:07:21;5.55;;;4.60;;
16504;SDS011;8365;51.030;4.696;2022-08-11T09:09:53;8.77;;;4.80;;
16504;SDS011;8365;51.030;4.696;2022-08-11T09:12:28;7.20;;;4.47;;
16504;SDS011;8365;51.030;4.696;2022-08-11T09:15:00;8.10;;;4.38;;
16504;SDS011;8365;51.030;4.696;2022-08-11T09:17:40;4.90;;;4.38;;
16504;SDS011;8365;51.030;4.696;2022-08-11T09:20:24;5.28;;;4.13;;
16504;SDS011;8365;51.030;4.696;2022-08-11T09:23:04;5.43;;;3.97;;
16504;SDS011;8365;51.030;4.696;2022-08-11T09:25:55;6.50;;;4.50;;
16504;SDS011;8365;51.030;4.696;2022-08-11T09:28:47;8.68;;;4.40;;
16504;SDS011;8365;51.030;4.696;2022-08-11T09:31:19;8.65;;;4.20;;
16504;SDS011;8365;51.030;4.696;2022-08-11T09:33:53;4.85;;;3.85;;
16504;SDS011;8365;51.030;4.696;2022-08-11T09:36:24;4.32;;;3.90;;
16504;SDS011;8365;51.030;4.696;2022-08-11T09:39:14;4.38;;;3.78;;
16504;SDS011;8365;51.030;4.696;2022-08-11T09:42:07;4.60;;;4.20;;
16504;SDS011;8365;51.030;4.696;2022-08-11T09:44:39;6.03;;;4.40;;
16504;SDS011;8365;51.030;4.696;2022-08-11T09:47:21;5.47;;;3.67;;
16504;SDS011;8365;51.030;4.696;2022-08-11T09:49:58;6.10;;;4.20;;
16504;SDS011;8365;51.030;4.696;2022-08-11T09:52:31;5.90;;;4.40;;
16504;SDS011;8365;51.030;4.696;2022-08-11T09:55:08;5.25;;;4.10;;
16504;SDS011;8365;51.030;4.696;2022-08-11T09:57:45;7.47;;;4.18;;
16504;SDS011;8365;51.030;4.696;2022-08-11T10:00:35;8.40;;;3.90;;
16504;SDS011;8365;51.030;4.696;2022-08-11T10:03:09;6.10;;;4.28;;
16504;SDS011;8365;51.030;4.696;2022-08-11T10:05:47;6.22;;;4.25;;
16504;SDS011;8365;51.030;4.696;2022-08-11T10:08:38;7.32;;;4.10;;
16504;SDS011;8365;51.030;4.696;2022-08-11T10:11:12;4.45;;;3.60;;
16504;SDS011;8365;51.030;4.696;2022-08-11T10:13:46;7.38;;;4.68;;
16504;SDS011;8365;51.030;4.696;2022-08-11T10:16:39;5.20;;;3.78;;
16504;SDS011;8365;51.030;4.696;2022-08-11T10:19:14;6.13;;;4.00;;
16504;SDS011;8365;51.030;4.696;2022-08-11T10:21:51;5.85;;;4.22;;
16504;SDS011;8365;51.030;4.696;2022-08-11T10:24:42;4.78;;;3.97;;
16504;SDS011;8365;51.030;4.696;2022-08-11T10:27:32;5.53;;;4.18;;
16504;SDS011;8365;51.030;4.696;2022-08-11T10:30:03;5.72;;;3.88;;
16504;SDS011;8365;51.030;4.696;2022-08-11T10:32:55;4.85;;;4.10;;
16504;SDS011;8365;51.030;4.696;2022-08-11T10:35:46;4.55;;;4.25;;
16504;SDS011;8365;51.030;4.696;2022-08-11T10:38:17;4.22;;;3.83;;
16504;SDS011;8365;51.030;4.696;2022-08-11T10:40:48;7.90;;;4.10;;
16504;SDS011;8365;51.030;4.696;2022-08-11T10:43:42;8.50;;;4.15;;
16504;SDS011;8365;51.030;4.696;2022-08-11T10:46:13;7.13;;;4.50;;
16504;SDS011;8365;51.030;4.696;2022-08-11T10:49:03;4.65;;;4.20;;
16504;SDS011;8365;51.030;4.696;2022-08-11T10:51:34;4.93;;;4.07;;
16504;SDS011;8365;51.030;4.696;2022-08-11T10:54:23;6.05;;;4.28;;
16504;SDS011;8365;51.030;4.696;2022-08-11T10:57:13;5.57;;;4.25;;
16504;SDS011;8365;51.030;4.696;2022-08-11T11:00:05;5.30;;;4.10;;
16504;SDS011;8365;51.030;4.696;2022-08-11T11:02:36;4.70;;;3.97;;
16504;SDS011;8365;51.030;4.696;2022-08-11T11:05:10;7.22;;;4.43;;
16504;SDS011;8365;51.030;4.696;2022-08-11T11:10:18;4.40;;;4.00;;
16504;SDS011;8365;51.030;4.696;2022-08-11T11:12:52;4.75;;;4.22;;
16504;SDS011;8365;51.030;4.696;2022-08-11T11:15:44;4.35;;;4.05;;
16504;SDS011;8365;51.030;4.696;2022-08-11T11:18:35;5.28;;;4.40;;
16504;SDS011;8365;51.030;4.696;2022-08-11T11:21:17;4.80;;;3.50;;
16504;SDS011;8365;51.030;4.696;2022-08-11T11:23:54;5.95;;;3.90;;
16504;SDS011;8365;51.030;4.696;2022-08-11T11:38:02;7.28;;;3.92;;
16504;SDS011;8365;51.030;4.696;2022-08-11T11:40:38;5.78;;;3.55;;
16504;SDS011;8365;51.030;4.696;2022-08-11T11:43:09;5.95;;;3.80;;
16504;SDS011;8365;51.030;4.696;2022-08-11T11:45:40;4.05;;;3.72;;
16504;SDS011;8365;51.030;4.696;2022-08-11T11:48:11;5.55;;;3.50;;
16504;SDS011;8365;51.030;4.696;2022-08-11T11:50:41;4.30;;;3.33;;
16504;SDS011;8365;51.030;4.696;2022-08-11T11:53:14;3.53;;;3.20;;
16504;SDS011;8365;51.030;4.696;2022-08-11T11:55:45;6.28;;;3.72;;
16504;SDS011;8365;51.030;4.696;2022-08-11T11:58:16;4.65;;;3.42;;
16504;SDS011;8365;51.030;4.696;2022-08-11T12:01:08;6.50;;;3.58;;
16504;SDS011;8365;51.030;4.696;2022-08-11T12:03:46;4.70;;;3.30;;
16504;SDS011;8365;51.030;4.696;2022-08-11T12:06:20;6.60;;;3.40;;
16504;SDS011;8365;51.030;4.696;2022-08-11T12:08:53;3.50;;;3.28;;
16504;SDS011;8365;51.030;4.696;2022-08-11T12:11:27;6.07;;;3.78;;
16504;SDS011;8365;51.030;4.696;2022-08-11T12:14:17;3.30;;;3.10;;
16504;SDS011;8365;51.030;4.696;2022-08-11T12:16:49;4.78;;;3.38;;
16504;SDS011;8365;51.030;4.696;2022-08-11T12:19:24;3.53;;;3.22;;
16504;SDS011;8365;51.030;4.696;2022-08-11T12:21:57;3.40;;;3.10;;
16504;SDS011;8365;51.030;4.696;2022-08-11T12:24:47;5.30;;;3.30;;
16504;SDS011;8365;51.030;4.696;2022-08-11T12:27:36;5.93;;;3.50;;
16504;SDS011;8365;51.030;4.696;2022-08-11T12:30:09;6.18;;;3.17;;
16504;SDS011;8365;51.030;4.696;2022-08-11T12:32:41;3.50;;;3.20;;
16504;SDS011;8365;51.030;4.696;2022-08-11T12:35:13;5.88;;;3.42;;
16504;SDS011;8365;51.030;4.696;2022-08-11T12:37:47;6.35;;;3.20;;
16504;SDS011;8365;51.030;4.696;2022-08-11T12:40:21;3.00;;;2.78;;
16504;SDS011;8365;51.030;4.696;2022-08-11T12:43:13;3.38;;;3.05;;
16504;SDS011;8365;51.030;4.696;2022-08-11T12:46:24;3.35;;;2.97;;
16504;SDS011;8365;51.030;4.696;2022-08-11T12:48:59;5.22;;;3.17;;
16504;SDS011;8365;51.030;4.696;2022-08-11T12:51:56;3.33;;;3.10;;
16504;SDS011;8365;51.030;4.696;2022-08-11T12:54:41;3.45;;;2.90;;
16504;SDS011;8365;51.030;4.696;2022-08-11T12:57:34;5.75;;;3.00;;
16504;SDS011;8365;51.030;4.696;2022-08-11T13:00:25;3.97;;;3.17;;
16504;SDS011;8365;51.030;4.696;2022-08-11T13:03:19;3.10;;;2.80;;
16504;SDS011;8365;51.030;4.696;2022-08-11T13:06:09;3.70;;;2.72;;
16504;SDS011;8365;51.030;4.696;2022-08-11T13:08:41;3.70;;;3.40;;
16504;SDS011;8365;51.030;4.696;2022-08-11T13:11:14;5.32;;;3.15;;
16504;SDS011;8365;51.030;4.696;2022-08-11T13:14:05;5.18;;;3.33;;
16504;SDS011;8365;51.030;4.696;2022-08-11T13:16:40;3.88;;;2.97;;
16504;SDS011;8365;51.030;4.696;2022-08-11T13:19:30;5.57;;;3.53;;
16504;SDS011;8365;51.030;4.696;2022-08-11T13:22:03;4.90;;;3.30;;
16504;SDS011;8365;51.030;4.696;2022-08-11T13:24:36;3.63;;;3.33;;
16504;SDS011;8365;51.030;4.696;2022-08-11T13:27:07;6.75;;;3.30;;
16504;SDS011;8365;51.030;4.696;2022-08-11T13:29:41;4.00;;;3.60;;
16504;SDS011;8365;51.030;4.696;2022-08-11T13:32:15;3.60;;;3.30;;
16504;SDS011;8365;51.030;4.696;2022-08-11T13:34:49;5.70;;;3.20;;
16504;SDS011;8365;51.030;4.696;2022-08-11T13:37:19;5.95;;;3.25;;
16504;SDS011;8365;51.030;4.696;2022-08-11T13:39:51;5.00;;;3.47;;
16504;SDS011;8365;51.030;4.696;2022-08-11T13:42:22;4.05;;;3.38;;
16504;SDS011;8365;51.030;4.696;2022-08-11T13:44:55;4.80;;;3.40;;
16504;SDS011;8365;51.030;4.696;2022-08-11T13:47:26;4.25;;;3.70;;
16504;SDS011;8365;51.030;4.696;2022-08-11T13:49:58;4.03;;;3.58;;
16504;SDS011;8365;51.030;4.696;2022-08-11T13:52:28;4.38;;;3.97;;
16504;SDS011;8365;51.030;4.696;2022-08-11T13:55:01;3.75;;;3.35;;
16504;SDS011;8365;51.030;4.696;2022-08-11T13:57:32;4.20;;;3.80;;
16504;SDS011;8365;51.030;4.696;2022-08-11T14:00:07;6.97;;;3.60;;
16504;SDS011;8365;51.030;4.696;2022-08-11T14:02:40;4.65;;;3.10;;
16504;SDS011;8365;51.030;4.696;2022-08-11T14:05:14;5.97;;;3.80;;
16504;SDS011;8365;51.030;4.696;2022-08-11T14:07:51;9.68;;;4.13;;
16504;SDS011;8365;51.030;4.696;2022-08-11T14:10:26;5.72;;;3.33;;
16504;SDS011;8365;51.030;4.696;2022-08-11T14:12:59;6.47;;;3.47;;
16504;SDS011;8365;51.030;4.696;2022-08-11T14:15:54;4.13;;;3.38;;
16504;SDS011;8365;51.030;4.696;2022-08-11T14:18:31;3.70;;;3.40;;
16504;SDS011;8365;51.030;4.696;2022-08-11T14:21:03;4.03;;;3.45;;
16504;SDS011;8365;51.030;4.696;2022-08-11T14:24:01;4.00;;;3.30;;
16504;SDS011;8365;51.030;4.696;2022-08-11T14:26:33;4.03;;;3.72;;
16504;SDS011;8365;51.030;4.696;2022-08-11T14:29:08;7.10;;;3.22;;
16504;SDS011;8365;51.030;4.696;2022-08-11T14:31:44;5.43;;;3.25;;
16504;SDS011;8365;51.030;4.696;2022-08-11T14:34:17;7.38;;;3.75;;
16504;SDS011;8365;51.030;4.696;2022-08-11T14:36:54;4.35;;;3.55;;
16504;SDS011;8365;51.030;4.696;2022-08-11T14:39:28;3.85;;;3.53;;
16504;SDS011;8365;51.030;4.696;2022-08-11T14:42:05;7.00;;;3.65;;
16504;SDS011;8365;51.030;4.696;2022-08-11T14:44:55;6.50;;;3.63;;
16504;SDS011;8365;51.030;4.696;2022-08-11T14:47:46;4.88;;;3.53;;
16504;SDS011;8365;51.030;4.696;2022-08-11T14:50:21;3.40;;;3.17;;
16504;SDS011;8365;51.030;4.696;2022-08-11T14:53:00;4.45;;;3.40;;
16504;SDS011;8365;51.030;4.696;2022-08-11T14:55:34;4.75;;;3.45;;
16504;SDS011;8365;51.030;4.696;2022-08-11T14:58:27;3.80;;;3.40;;
16504;SDS011;8365;51.030;4.696;2022-08-11T15:00:59;4.57;;;3.28;;
16504;SDS011;8365;51.030;4.696;2022-08-11T15:03:31;4.50;;;3.63;;
16504;SDS011;8365;51.030;4.696;2022-08-11T15:06:07;5.65;;;3.28;;
16504;SDS011;8365;51.030;4.696;2022-08-11T15:08:40;5.65;;;3.42;;
16504;SDS011;8365;51.030;4.696;2022-08-11T15:11:29;4.70;;;3.28;;
16504;SDS011;8365;51.030;4.696;2022-08-11T15:14:19;4.43;;;3.85;;
16504;SDS011;8365;51.030;4.696;2022-08-11T15:17:09;3.63;;;3.33;;
16504;SDS011;8365;51.030;4.696;2022-08-11T15:19:42;3.90;;;3.28;;
16504;SDS011;8365;51.030;4.696;2022-08-11T15:22:31;3.63;;;3.30;;
16504;SDS011;8365;51.030;4.696;2022-08-11T15:25:20;4.57;;;3.10;;
16504;SDS011;8365;51.030;4.696;2022-08-11T15:27:51;5.82;;;3.22;;
16504;SDS011;8365;51.030;4.696;2022-08-11T15:30:41;3.72;;;3.08;;
16504;SDS011;8365;51.030;4.696;2022-08-11T15:33:32;4.45;;;3.30;;
16504;SDS011;8365;51.030;4.696;2022-08-11T15:36:23;6.38;;;3.15;;
16504;SDS011;8365;51.030;4.696;2022-08-11T15:39:19;5.10;;;3.22;;
16504;SDS011;8365;51.030;4.696;2022-08-11T15:41:53;4.07;;;3.13;;
16504;SDS011;8365;51.030;4.696;2022-08-11T15:44:52;3.00;;;2.80;;
16504;SDS011;8365;51.030;4.696;2022-08-11T15:47:48;3.60;;;3.30;;
16504;SDS011;8365;51.030;4.696;2022-08-11T15:50:27;3.45;;;3.00;;
16504;SDS011;8365;51.030;4.696;2022-08-11T15:53:01;4.55;;;3.40;;
16504;SDS011;8365;51.030;4.696;2022-08-11T15:55:36;6.47;;;3.20;;
16504;SDS011;8365;51.030;4.696;2022-08-11T15:58:08;3.63;;;3.30;;
16504;SDS011;8365;51.030;4.696;2022-08-11T16:00:59;4.65;;;3.15;;
16504;SDS011;8365;51.030;4.696;2022-08-11T16:03:53;7.65;;;3.22;;
16504;SDS011;8365;51.030;4.696;2022-08-11T16:06:42;5.95;;;3.10;;
16504;SDS011;8365;51.030;4.696;2022-08-11T16:09:31;7.40;;;3.20;;
16504;SDS011;8365;51.030;4.696;2022-08-11T16:12:07;4.85;;;3.20;;
16504;SDS011;8365;51.030;4.696;2022-08-11T16:14:41;6.18;;;3.28;;
16504;SDS011;8365;51.030;4.696;2022-08-11T16:17:35;3.42;;;3.13;;
16504;SDS011;8365;51.030;4.696;2022-08-11T16:20:11;3.78;;;3.40;;
16504;SDS011;8365;51.030;4.696;2022-08-11T16:22:44;3.80;;;3.03;;
16504;SDS011;8365;51.030;4.696;2022-08-11T16:25:21;3.58;;;3.22;;
16504;SDS011;8365;51.030;4.696;2022-08-11T16:27:55;4.72;;;3.30;;
16504;SDS011;8365;51.030;4.696;2022-08-11T16:30:39;4.47;;;2.92;;
16504;SDS011;8365;51.030;4.696;2022-08-11T16:33:12;4.32;;;3.25;;
16504;SDS011;8365;51.030;4.696;2022-08-11T16:35:44;3.45;;;3.15;;
16504;SDS011;8365;51.030;4.696;2022-08-11T16:38:36;3.20;;;2.90;;
16504;SDS011;8365;51.030;4.696;2022-08-11T16:41:10;5.50;;;3.80;;
16504;SDS011;8365;51.030;4.696;2022-08-11T16:43:44;3.70;;;3.25;;
16504;SDS011;8365;51.030;4.696;2022-08-11T16:46:35;4.38;;;3.35;;
16504;SDS011;8365;51.030;4.696;2022-08-11T16:49:25;3.53;;;3.22;;
16504;SDS011;8365;51.030;4.696;2022-08-11T16:52:25;4.85;;;3.53;;
16504;SDS011;8365;51.030;4.696;2022-08-11T16:54:56;5.32;;;3.90;;
16504;SDS011;8365;51.030;4.696;2022-08-11T16:57:26;8.02;;;3.70;;
16504;SDS011;8365;51.030;4.696;2022-08-11T17:00:16;3.80;;;3.47;;
16504;SDS011;8365;51.030;4.696;2022-08-11T17:02:51;4.05;;;3.72;;
16504;SDS011;8365;51.030;4.696;2022-08-11T17:05:43;6.88;;;3.78;;
16504;SDS011;8365;51.030;4.696;2022-08-11T17:08:47;4.22;;;3.63;;
16504;SDS011;8365;51.030;4.696;2022-08-11T17:11:44;5.78;;;3.95;;
16504;SDS011;8365;51.030;4.696;2022-08-11T17:14:45;5.72;;;4.20;;
16504;SDS011;8365;51.030;4.696;2022-08-11T17:17:22;4.30;;;4.00;;
16504;SDS011;8365;51.030;4.696;2022-08-11T17:19:57;5.65;;;3.78;;
16504;SDS011;8365;51.030;4.696;2022-08-11T17:22:31;7.68;;;4.00;;
16504;SDS011;8365;51.030;4.696;2022-08-11T17:25:23;5.93;;;4.38;;
16504;SDS011;8365;51.030;4.696;2022-08-11T17:27:54;7.00;;;4.22;;
16504;SDS011;8365;51.030;4.696;2022-08-11T17:30:26;5.05;;;3.95;;
16504;SDS011;8365;51.030;4.696;2022-08-11T17:33:18;8.38;;;4.30;;
16504;SDS011;8365;51.030;4.696;2022-08-11T17:36:09;8.02;;;4.00;;
16504;SDS011;8365;51.030;4.696;2022-08-11T17:38:41;5.97;;;3.80;;
16504;SDS011;8365;51.030;4.696;2022-08-11T17:41:13;4.93;;;3.90;;
16504;SDS011;8365;51.030;4.696;2022-08-11T17:44:04;5.93;;;3.97;;
16504;SDS011;8365;51.030;4.696;2022-08-11T17:46:54;4.78;;;4.13;;
16504;SDS011;8365;51.030;4.696;2022-08-11T17:49:43;5.80;;;4.10;;
16504;SDS011;8365;51.030;4.696;2022-08-11T17:52:14;4.68;;;4.00;;
16504;SDS011;8365;51.030;4.696;2022-08-11T17:55:04;4.53;;;4.13;;
16504;SDS011;8365;51.030;4.696;2022-08-11T17:57:55;5.38;;;3.80;;
16504;SDS011;8365;51.030;4.696;2022-08-11T18:00:45;4.28;;;3.90;;
16504;SDS011;8365;51.030;4.696;2022-08-11T18:03:20;4.25;;;3.95;;
16504;SDS011;8365;51.030;4.696;2022-08-11T18:06:01;6.07;;;4.22;;
16504;SDS011;8365;51.030;4.696;2022-08-11T18:08:33;4.70;;;3.92;;
16504;SDS011;8365;51.030;4.696;2022-08-11T18:11:27;6.72;;;3.67;;
16504;SDS011;8365;51.030;4.696;2022-08-11T18:14:19;6.00;;;4.03;;
16504;SDS011;8365;51.030;4.696;2022-08-11T18:17:11;6.70;;;4.40;;
16504;SDS011;8365;51.030;4.696;2022-08-11T18:20:00;6.07;;;4.10;;
16504;SDS011;8365;51.030;4.696;2022-08-11T18:22:49;5.43;;;4.13;;
16504;SDS011;8365;51.030;4.696;2022-08-11T18:25:41;4.53;;;4.13;;
16504;SDS011;8365;51.030;4.696;2022-08-11T18:28:35;7.97;;;4.07;;
16504;SDS011;8365;51.030;4.696;2022-08-11T18:31:32;4.38;;;3.97;;
16504;SDS011;8365;51.030;4.696;2022-08-11T18:34:25;7.15;;;4.15;;
16504;SDS011;8365;51.030;4.696;2022-08-11T18:37:22;4.97;;;4.47;;
16504;SDS011;8365;51.030;4.696;2022-08-11T18:40:18;5.45;;;4.30;;
16504;SDS011;8365;51.030;4.696;2022-08-11T18:43:11;5.00;;;4.47;;
16504;SDS011;8365;51.030;4.696;2022-08-11T18:46:05;5.32;;;4.40;;
16504;SDS011;8365;51.030;4.696;2022-08-11T18:49:07;5.78;;;4.43;;
16504;SDS011;8365;51.030;4.696;2022-08-11T18:51:59;6.22;;;4.10;;
16504;SDS011;8365;51.030;4.696;2022-08-11T18:54:50;5.35;;;4.50;;
16504;SDS011;8365;51.030;4.696;2022-08-11T18:57:45;4.90;;;4.40;;
16504;SDS011;8365;51.030;4.696;2022-08-11T19:00:35;9.98;;;4.70;;
16504;SDS011;8365;51.030;4.696;2022-08-11T19:03:26;5.95;;;4.70;;
16504;SDS011;8365;51.030;4.696;2022-08-11T19:06:19;7.43;;;4.68;;
16504;SDS011;8365;51.030;4.696;2022-08-11T19:09:13;7.53;;;4.80;;
16504;SDS011;8365;51.030;4.696;2022-08-11T19:12:07;10.70;;;4.75;;
16504;SDS011;8365;51.030;4.696;2022-08-11T19:14:59;5.53;;;4.70;;
16504;SDS011;8365;51.030;4.696;2022-08-11T19:17:49;5.75;;;4.95;;
16504;SDS011;8365;51.030;4.696;2022-08-11T19:20:41;6.05;;;4.68;;
16504;SDS011;8365;51.030;4.696;2022-08-11T19:23:33;10.93;;;5.10;;
16504;SDS011;8365;51.030;4.696;2022-08-11T19:26:26;9.00;;;4.78;;
16504;SDS011;8365;51.030;4.696;2022-08-11T19:29:18;5.65;;;5.15;;
16504;SDS011;8365;51.030;4.696;2022-08-11T19:32:11;6.28;;;4.95;;
16504;SDS011;8365;51.030;4.696;2022-08-11T19:35:01;9.40;;;5.15;;
16504;SDS011;8365;51.030;4.696;2022-08-11T19:37:51;10.70;;;5.43;;
16504;SDS011;8365;51.030;4.696;2022-08-11T19:40:42;7.40;;;5.75;;
16504;SDS011;8365;51.030;4.696;2022-08-11T19:43:32;6.07;;;5.55;;